createdAt,value
2023-11-23T00:01:36.758Z,58.95
2023-11-23T00:04:06.562Z,53.78
2023-11-23T00:06:34.628Z,69.22
2023-11-23T00:09:02.584Z,54.40
2023-11-23T00:11:30.565Z,68.32
2023-11-23T00:13:58.514Z,61.55
2023-11-23T00:16:26.614Z,51.10
2023-11-23T00:18:54.631Z,41.83
2023-11-23T00:21:23.983Z,54.72
2023-11-23T00:23:52.595Z,75.22
2023-11-23T00:26:20.554Z,70.25
2023-11-23T00:28:57.690Z,66.75
2023-11-23T00:31:25.697Z,58.72
2023-11-23T00:33:53.829Z,61.88
2023-11-23T00:36:21.909Z,83.07
2023-11-23T00:38:51.338Z,70.15
2023-11-23T00:41:19.334Z,77.13
2023-11-23T00:43:47.318Z,49.50
2023-11-23T00:46:15.893Z,84.28
2023-11-23T00:48:44.130Z,64.40
2023-11-23T00:51:12.213Z,65.25
2023-11-23T00:53:40.722Z,66.82
2023-11-23T00:56:10.405Z,72.07
2023-11-23T00:58:38.410Z,68.97
2023-11-23T01:01:06.475Z,72.13
2023-11-23T01:03:34.552Z,64.38
2023-11-23T01:06:02.601Z,65.82
2023-11-23T01:08:30.563Z,65.80
2023-11-23T01:11:00.362Z,83.80
2023-11-23T01:13:30.402Z,63.80
2023-11-23T01:15:57.780Z,76.72
2023-11-23T01:18:26.011Z,78.65
2023-11-23T01:20:54.093Z,61.08
2023-11-23T01:23:23.173Z,67.28
2023-11-23T01:25:51.191Z,71.00
2023-11-23T01:28:19.271Z,88.47
2023-11-23T01:30:48.593Z,64.95
2023-11-23T01:33:16.839Z,69.15
2023-11-23T01:35:45.434Z,81.60
2023-11-23T01:38:13.436Z,74.93
2023-11-23T01:40:41.422Z,73.13
2023-11-23T01:43:11.001Z,67.32
2023-11-23T01:45:39.469Z,60.47
2023-11-23T01:48:09.094Z,62.55
2023-11-23T01:53:06.539Z,68.22
2023-11-23T01:55:34.509Z,63.17
2023-11-23T01:58:04.126Z,72.10
2023-11-23T02:00:32.814Z,65.28
2023-11-23T02:03:01.955Z,65.50
2023-11-23T02:05:31.352Z,71.07
2023-11-23T02:07:59.316Z,67.13
2023-11-23T02:10:28.841Z,61.13
2023-11-23T02:12:57.815Z,58.90
2023-11-23T02:15:25.802Z,68.97
2023-11-23T02:18:03.110Z,52.67
2023-11-23T02:20:33.047Z,72.03
2023-11-23T02:23:02.061Z,59.42
2023-11-23T02:28:00.445Z,46.13
2023-11-23T02:30:28.547Z,75.70
2023-11-23T02:32:57.376Z,66.13
2023-11-23T02:35:25.545Z,69.18
2023-11-23T02:37:53.534Z,63.42
2023-11-23T02:40:21.661Z,59.47
2023-11-23T02:42:51.141Z,77.78
2023-11-23T02:47:47.060Z,53.58
2023-11-23T02:50:15.056Z,69.05
2023-11-23T02:52:43.254Z,65.97
2023-11-23T02:55:12.253Z,86.65
2023-11-23T02:57:40.476Z,65.18
2023-11-23T03:00:11.126Z,65.05
2023-11-23T03:02:39.141Z,60.15
2023-11-23T03:05:08.074Z,55.92
2023-11-23T03:07:36.309Z,69.05
2023-11-23T03:10:04.355Z,64.78
2023-11-23T03:12:33.294Z,65.68
2023-11-23T03:15:01.274Z,60.58
2023-11-23T03:17:30.673Z,78.35
2023-11-23T03:19:58.805Z,68.43
2023-11-23T03:22:26.797Z,61.63
2023-11-23T03:24:56.339Z,69.72
2023-11-23T03:27:24.320Z,69.50
2023-11-23T03:29:52.699Z,84.68
2023-11-23T03:32:20.728Z,60.00
2023-11-23T03:34:50.063Z,74.57
2023-11-23T03:42:14.579Z,75.35
2023-11-23T03:44:42.617Z,66.50
2023-11-23T03:47:10.650Z,78.10
2023-11-23T03:49:38.588Z,76.63
2023-11-23T03:52:08.914Z,61.60
2023-11-23T03:54:37.101Z,57.45
2023-11-23T03:57:05.833Z,57.42
2023-11-23T03:59:33.904Z,73.38
2023-11-23T04:02:01.918Z,62.85
2023-11-23T04:04:30.143Z,69.78
2023-11-23T04:06:59.419Z,80.60
2023-11-23T04:09:29.063Z,76.97
2023-11-23T04:11:57.058Z,66.78
2023-11-23T04:14:25.006Z,73.43
2023-11-23T04:16:53.559Z,73.60
2023-11-23T04:19:21.534Z,60.03
2023-11-23T04:21:49.878Z,66.90
2023-11-23T04:24:17.862Z,73.40
2023-11-23T04:26:47.189Z,73.43
2023-11-23T04:29:15.278Z,62.55
2023-11-23T04:31:43.233Z,59.17
2023-11-23T04:34:11.267Z,67.50
2023-11-23T04:36:39.267Z,63.33
2023-11-23T04:39:07.422Z,61.35
2023-11-23T04:41:35.454Z,64.10
2023-11-23T04:44:04.929Z,61.55
2023-11-23T04:49:00.797Z,47.63
2023-11-23T04:51:28.712Z,60.05
2023-11-23T04:53:58.038Z,57.10
2023-11-23T04:58:53.882Z,47.63
2023-11-23T05:01:23.151Z,52.72
2023-11-23T05:03:51.275Z,67.22
2023-11-23T05:06:19.351Z,54.15
2023-11-23T05:08:47.779Z,51.55
2023-11-23T05:11:15.852Z,49.83
2023-11-23T05:13:43.817Z,48.15
2023-11-23T05:16:11.784Z,51.92
2023-11-23T05:18:44.370Z,58.40
2023-11-23T05:21:12.772Z,51.85
2023-11-23T05:23:40.784Z,49.13
2023-11-23T05:26:08.752Z,41.40
2023-11-23T05:28:37.054Z,40.15
2023-11-23T05:31:05.357Z,40.08
2023-11-23T05:33:33.471Z,42.67
2023-11-23T05:36:03.264Z,46.65
2023-11-23T05:38:31.615Z,47.03
2023-11-23T05:40:59.572Z,43.88
2023-11-23T05:43:27.537Z,46.28
2023-11-23T05:45:55.535Z,31.85
2023-11-23T05:48:23.555Z,34.40
2023-11-23T05:50:51.567Z,34.45
2023-11-23T05:53:20.913Z,36.35
2023-11-23T05:58:16.702Z,30.90
2023-11-23T06:00:44.673Z,28.80
2023-11-23T06:03:12.990Z,37.10
2023-11-23T06:05:41.141Z,28.42
2023-11-23T06:08:09.124Z,31.02
2023-11-23T06:10:38.692Z,26.83
2023-11-23T06:13:07.032Z,21.27
2023-11-23T06:15:34.989Z,30.15
2023-11-23T06:18:11.121Z,25.92
2023-11-23T06:20:42.043Z,26.55
2023-11-23T06:23:10.505Z,24.25
2023-11-23T06:25:40.332Z,23.50
2023-11-23T06:28:15.078Z,22.45
2023-11-23T06:30:46.191Z,21.48
2023-11-23T06:33:14.767Z,17.58
2023-11-23T06:35:43.048Z,16.30
2023-11-23T06:38:11.155Z,21.88
2023-11-23T06:40:40.427Z,14.25
2023-11-23T06:43:08.355Z,18.88
2023-11-23T06:45:36.369Z,22.67
2023-11-23T06:48:04.619Z,19.27
2023-11-23T06:50:33.792Z,21.02
2023-11-23T06:53:01.720Z,21.13
2023-11-23T06:55:29.634Z,12.90
2023-11-23T06:57:58.928Z,18.98
2023-11-23T07:00:27.020Z,18.42
2023-11-23T07:02:57.360Z,14.55
2023-11-23T07:05:25.871Z,15.60
2023-11-23T07:07:54.430Z,21.80
2023-11-23T07:10:23.289Z,16.73
2023-11-23T07:17:53.377Z,18.95
2023-11-23T07:20:21.483Z,14.40
2023-11-23T07:22:49.411Z,14.27
2023-11-23T07:25:18.380Z,22.20
2023-11-23T07:27:46.394Z,17.60
2023-11-23T07:30:15.359Z,17.17
2023-11-23T07:32:44.757Z,15.77
2023-11-23T07:35:13.629Z,17.45
2023-11-23T07:37:41.572Z,10.38
2023-11-23T07:40:15.449Z,15.68
2023-11-23T07:42:45.109Z,17.60
2023-11-23T07:45:13.803Z,19.23
2023-11-23T07:47:44.605Z,15.77
2023-11-23T07:50:12.774Z,17.52
2023-11-23T07:52:40.762Z,14.60
2023-11-23T07:55:11.234Z,20.55
2023-11-23T07:57:39.462Z,16.45
2023-11-23T08:00:09.337Z,18.90
2023-11-23T08:02:37.652Z,12.77
2023-11-23T08:05:09.933Z,19.00
2023-11-23T08:07:37.978Z,12.55
2023-11-23T08:10:10.588Z,13.18
2023-11-23T08:12:39.082Z,17.63
2023-11-23T08:15:08.364Z,15.23
2023-11-23T08:17:36.749Z,15.20
2023-11-23T08:20:07.465Z,15.05
2023-11-23T08:22:37.362Z,17.63
2023-11-23T08:25:05.984Z,17.63
2023-11-23T08:27:35.810Z,10.13
2023-11-23T08:30:05.274Z,8.93
2023-11-23T08:32:33.274Z,11.55
2023-11-23T08:35:02.314Z,15.63
2023-11-23T08:37:30.265Z,10.10
2023-11-23T08:39:59.646Z,11.45
2023-11-23T08:44:55.429Z,12.18
2023-11-23T08:47:23.413Z,11.27
2023-11-23T08:49:51.410Z,11.43
2023-11-23T08:52:19.717Z,13.60
2023-11-23T08:54:47.796Z,11.93
2023-11-23T08:57:17.331Z,16.20
2023-11-23T08:59:46.138Z,10.00
2023-11-23T09:02:20.400Z,14.35
2023-11-23T09:04:50.240Z,8.57
2023-11-23T09:09:46.935Z,16.00
2023-11-23T09:12:15.036Z,12.45
2023-11-23T09:14:49.389Z,11.90
2023-11-23T09:17:18.504Z,13.98
2023-11-23T09:19:47.493Z,17.13
2023-11-23T09:22:15.512Z,8.52
2023-11-23T09:24:43.978Z,11.13
2023-11-23T09:27:12.480Z,13.45
2023-11-23T09:29:40.583Z,15.13
2023-11-23T09:32:10.283Z,7.88
2023-11-23T09:34:38.219Z,12.63
2023-11-23T09:37:07.475Z,13.50
2023-11-23T09:42:06.904Z,10.35
2023-11-23T09:44:37.592Z,13.60
2023-11-23T09:47:10.121Z,11.85
2023-11-23T09:49:39.213Z,8.68
2023-11-23T09:52:08.450Z,14.30
2023-11-23T09:54:37.280Z,8.20
2023-11-23T09:57:06.032Z,9.20
2023-11-23T09:59:34.107Z,10.00
2023-11-23T10:02:07.101Z,11.60
2023-11-23T10:04:36.567Z,13.20
2023-11-23T10:09:35.357Z,9.38
2023-11-23T10:12:04.616Z,7.88
2023-11-23T10:17:00.556Z,11.30
2023-11-23T10:19:27.533Z,12.77
2023-11-23T10:22:00.985Z,10.32
2023-11-23T10:24:29.593Z,11.75
2023-11-23T10:26:58.024Z,8.88
2023-11-23T10:29:29.691Z,11.00
2023-11-23T10:32:00.632Z,8.43
2023-11-23T10:34:29.961Z,9.60
2023-11-23T10:37:00.097Z,13.63
2023-11-23T10:39:29.118Z,9.30
2023-11-23T10:41:57.970Z,13.18
2023-11-23T10:44:27.713Z,10.88
2023-11-23T10:46:59.876Z,15.95
2023-11-23T10:49:28.518Z,15.13
2023-11-23T10:51:56.733Z,9.15
2023-11-23T10:54:26.080Z,8.32
2023-11-23T11:01:51.612Z,10.60
2023-11-23T11:04:19.718Z,11.35
2023-11-23T11:06:48.658Z,8.43
2023-11-23T11:09:18.473Z,9.45
2023-11-23T11:11:55.294Z,10.05
2023-11-23T11:14:32.743Z,8.02
2023-11-23T11:17:05.475Z,4.47
2023-11-23T11:19:44.648Z,8.38
2023-11-23T11:22:15.002Z,7.72
2023-11-23T11:24:46.080Z,7.13
2023-11-23T11:27:15.785Z,9.52
2023-11-23T11:29:52.149Z,11.32
2023-11-23T11:32:22.620Z,5.25
2023-11-23T11:35:01.999Z,11.82
2023-11-23T11:37:32.318Z,6.22
2023-11-23T11:40:01.320Z,5.88
2023-11-23T11:42:32.020Z,6.85
2023-11-23T11:45:00.333Z,6.60
2023-11-23T11:47:30.768Z,8.40
2023-11-23T11:49:59.313Z,10.15
2023-11-23T11:52:28.044Z,8.35
2023-11-23T11:54:56.113Z,6.68
2023-11-23T11:57:24.094Z,12.00
2023-11-23T11:59:54.700Z,11.27
2023-11-23T12:02:22.708Z,7.28
2023-11-23T12:04:59.046Z,6.20
2023-11-23T12:07:27.400Z,6.82
2023-11-23T12:09:56.278Z,7.97
2023-11-23T12:12:24.303Z,5.55
2023-11-23T12:14:54.291Z,10.00
2023-11-23T12:17:23.237Z,6.13
2023-11-23T12:19:52.467Z,10.98
2023-11-23T12:24:49.761Z,6.13
2023-11-23T12:27:17.873Z,7.60
2023-11-23T12:29:46.004Z,12.20
2023-11-23T12:32:15.955Z,6.00
2023-11-23T12:34:44.570Z,7.85
2023-11-23T12:37:12.589Z,8.23
2023-11-23T12:39:40.702Z,7.03
2023-11-23T12:42:08.714Z,3.08
2023-11-23T12:44:37.254Z,8.55
2023-11-23T12:47:04.987Z,8.77
2023-11-23T12:49:34.942Z,5.35
2023-11-23T12:52:03.179Z,6.22
2023-11-23T12:54:31.693Z,5.40
2023-11-23T12:57:00.017Z,9.32
2023-11-23T12:59:27.949Z,4.93
2023-11-23T13:01:58.901Z,11.55
2023-11-23T13:04:30.550Z,8.23
2023-11-23T13:07:00.281Z,7.45
2023-11-23T13:09:29.482Z,7.07
2023-11-23T13:11:59.643Z,7.72
2023-11-23T13:14:27.825Z,4.72
2023-11-23T13:16:55.793Z,5.75
2023-11-23T13:19:30.633Z,5.35
2023-11-23T13:22:06.973Z,10.55
2023-11-23T13:24:37.184Z,9.48
2023-11-23T13:27:05.550Z,4.88
2023-11-23T13:29:33.495Z,6.88
2023-11-23T13:32:01.616Z,7.03
2023-11-23T13:34:29.557Z,4.22
2023-11-23T13:36:57.534Z,7.03
2023-11-23T13:39:28.584Z,5.32
2023-11-23T13:41:57.779Z,10.15
2023-11-23T13:44:25.771Z,4.85
2023-11-23T13:46:54.163Z,9.35
2023-11-23T13:49:22.767Z,7.45
2023-11-23T13:51:50.860Z,7.03
2023-11-23T13:54:19.023Z,10.00
2023-11-23T13:56:48.369Z,5.80
2023-11-23T14:01:44.285Z,6.35
2023-11-23T14:04:14.203Z,7.07
2023-11-23T14:06:43.226Z,10.85
2023-11-23T14:09:19.242Z,8.82
2023-11-23T14:11:51.498Z,10.93
2023-11-23T14:14:19.403Z,9.93
2023-11-23T14:16:47.391Z,11.85
2023-11-23T14:19:17.429Z,9.32
2023-11-23T14:21:47.338Z,9.27
2023-11-23T14:24:16.453Z,9.43
2023-11-23T14:26:44.628Z,6.13
2023-11-23T14:29:13.936Z,5.35
2023-11-23T14:36:37.986Z,12.95
2023-11-23T14:39:06.898Z,10.40
2023-11-23T14:41:36.636Z,8.23
2023-11-23T14:44:05.371Z,9.35
2023-11-23T14:46:34.738Z,10.88
2023-11-23T14:49:03.138Z,9.90
2023-11-23T14:51:31.434Z,10.82
2023-11-23T14:54:07.094Z,12.27
2023-11-23T14:56:38.691Z,8.50
2023-11-23T14:59:07.967Z,15.00
2023-11-23T15:04:08.169Z,12.50
2023-11-23T15:06:36.562Z,8.05
2023-11-23T15:09:05.844Z,11.93
2023-11-23T15:14:01.681Z,11.82
2023-11-23T15:16:31.614Z,10.65
2023-11-23T15:19:01.562Z,8.23
2023-11-23T15:21:30.860Z,10.77
2023-11-23T15:26:30.447Z,11.45
2023-11-23T15:29:00.353Z,11.45
2023-11-23T15:31:28.600Z,7.78
2023-11-23T15:33:57.082Z,12.25
2023-11-23T15:36:26.443Z,10.02
2023-11-23T15:41:22.248Z,9.60
2023-11-23T15:43:50.207Z,9.27
2023-11-23T15:46:18.222Z,13.48
2023-11-23T15:48:46.257Z,8.95
2023-11-23T15:51:15.541Z,14.05
2023-11-23T15:56:15.874Z,6.40
2023-11-23T15:58:44.447Z,10.50
2023-11-23T16:01:12.640Z,10.32
2023-11-23T16:03:40.710Z,7.75
2023-11-23T16:06:10.582Z,12.90
2023-11-23T16:08:39.076Z,8.18
2023-11-23T16:11:09.550Z,13.02
2023-11-23T16:13:39.658Z,11.88
2023-11-23T16:16:08.403Z,9.20
2023-11-23T16:18:39.726Z,9.68
2023-11-23T16:21:08.289Z,12.63
2023-11-23T16:23:36.352Z,8.60
2023-11-23T16:26:05.850Z,9.63
2023-11-23T16:28:35.142Z,13.30
2023-11-23T16:31:05.916Z,19.92
2023-11-23T16:33:33.962Z,8.57
2023-11-23T16:36:02.001Z,11.77
2023-11-23T16:38:30.717Z,13.82
2023-11-23T16:40:59.024Z,12.07
2023-11-23T16:43:27.321Z,10.73
2023-11-23T16:45:56.752Z,21.00
2023-11-23T16:48:24.827Z,11.35
2023-11-23T16:50:52.818Z,12.48
2023-11-23T16:53:20.818Z,14.05
2023-11-23T16:55:48.870Z,12.02
2023-11-23T16:58:16.820Z,15.50
2023-11-23T17:00:45.021Z,18.00
2023-11-23T17:03:15.126Z,13.18
2023-11-23T17:05:43.819Z,13.25
2023-11-23T17:08:12.658Z,9.07
2023-11-23T17:10:40.796Z,11.20
2023-11-23T17:13:11.985Z,8.27
2023-11-23T17:15:40.259Z,10.30
2023-11-23T17:18:08.327Z,11.75
2023-11-23T17:20:37.726Z,12.63
2023-11-23T17:25:39.832Z,8.60
2023-11-23T17:28:08.455Z,16.63
2023-11-23T17:30:36.942Z,8.40
2023-11-23T17:33:05.004Z,12.82
2023-11-23T17:35:33.069Z,13.55
2023-11-23T17:38:02.378Z,9.00
2023-11-23T17:40:30.341Z,13.35
2023-11-23T17:42:58.548Z,20.30
2023-11-23T17:45:26.544Z,20.92
2023-11-23T17:47:55.771Z,16.40
2023-11-23T17:50:24.068Z,16.02
2023-11-23T17:52:52.434Z,18.83
2023-11-23T17:55:21.787Z,21.75
2023-11-23T18:00:19.415Z,12.93
2023-11-23T18:05:15.908Z,19.02
2023-11-23T18:07:43.893Z,25.63
2023-11-23T18:10:15.658Z,23.70
2023-11-23T18:12:46.114Z,21.55
2023-11-23T18:15:15.151Z,21.23
2023-11-23T18:17:44.016Z,18.00
2023-11-23T18:20:14.374Z,18.05
2023-11-23T18:22:42.404Z,13.20
2023-11-23T18:25:10.633Z,19.08
2023-11-23T18:27:39.050Z,22.58
2023-11-23T18:30:10.101Z,22.13
2023-11-23T18:32:38.218Z,24.27
2023-11-23T18:35:06.657Z,12.40
2023-11-23T18:37:34.621Z,13.07
2023-11-23T18:40:13.862Z,19.20
2023-11-23T18:42:43.503Z,11.15
2023-11-23T18:45:16.108Z,9.52
2023-11-23T18:47:44.272Z,12.13
2023-11-23T18:50:12.724Z,14.35
2023-11-23T18:52:41.388Z,5.45
2023-11-23T18:55:10.897Z,5.40
2023-11-23T18:57:39.132Z,10.05
2023-11-23T19:00:09.990Z,5.45
2023-11-23T19:02:40.041Z,7.97
2023-11-23T19:05:09.120Z,9.10
2023-11-23T19:07:37.058Z,10.35
2023-11-23T19:10:08.383Z,10.07
2023-11-23T19:12:36.321Z,10.00
2023-11-23T19:15:06.998Z,10.00
2023-11-23T19:17:35.466Z,11.75
2023-11-23T19:20:06.738Z,11.20
2023-11-23T19:22:35.411Z,11.63
2023-11-23T19:25:06.184Z,6.78
2023-11-23T19:27:34.620Z,14.15
2023-11-23T19:30:03.254Z,13.73
2023-11-23T19:32:31.752Z,13.38
2023-11-23T19:35:00.260Z,19.63
2023-11-23T19:37:30.686Z,12.93
2023-11-23T19:39:59.132Z,11.88
2023-11-23T19:42:28.023Z,13.48
2023-11-23T19:44:56.517Z,12.32
2023-11-23T19:47:25.260Z,7.32
2023-11-23T19:49:53.747Z,11.27
2023-11-23T19:52:26.094Z,7.07
2023-11-23T19:54:58.424Z,13.88
2023-11-23T19:57:27.123Z,18.08
2023-11-23T19:59:55.542Z,15.15
2023-11-23T20:02:23.614Z,13.25
2023-11-23T20:04:52.320Z,14.38
2023-11-23T20:07:20.283Z,15.38
2023-11-23T20:09:48.657Z,13.50
2023-11-23T20:12:18.164Z,16.48
2023-11-23T20:14:46.285Z,15.25
2023-11-23T20:17:14.269Z,15.38
2023-11-23T20:19:43.838Z,21.52
2023-11-23T20:22:11.823Z,8.93
2023-11-23T20:24:39.824Z,15.63
2023-11-23T20:27:07.800Z,14.38
2023-11-23T20:29:37.116Z,13.52
2023-11-23T20:32:06.027Z,19.42
2023-11-23T20:34:34.109Z,15.00
2023-11-23T20:37:02.080Z,14.30
2023-11-23T20:39:32.209Z,20.55
2023-11-23T20:42:00.404Z,10.75
2023-11-23T20:44:28.436Z,15.80
2023-11-23T20:46:57.809Z,12.80
2023-11-23T20:49:26.169Z,27.90
2023-11-23T20:51:54.744Z,7.10
2023-11-23T20:54:23.539Z,23.95
2023-11-23T20:56:56.326Z,19.45
2023-11-23T20:59:25.359Z,24.10
2023-11-23T21:01:54.995Z,21.83
2023-11-23T21:04:29.209Z,13.20
2023-11-23T21:07:02.245Z,17.20
2023-11-23T21:09:31.591Z,32.10
2023-11-23T21:12:03.338Z,17.17
2023-11-23T21:14:33.135Z,13.82
2023-11-23T21:17:01.907Z,17.73
2023-11-23T21:19:31.233Z,17.90
2023-11-23T21:21:59.223Z,19.95
2023-11-23T21:24:27.244Z,10.55
2023-11-23T21:26:55.218Z,19.95
2023-11-23T21:29:23.193Z,11.95
2023-11-23T21:31:51.178Z,13.82
2023-11-23T21:34:19.185Z,6.47
2023-11-23T21:36:48.518Z,4.95
2023-11-23T21:39:17.372Z,4.07
2023-11-23T21:41:47.801Z,1.90
2023-11-23T21:44:16.495Z,5.53
2023-11-23T21:46:44.549Z,2.47
2023-11-23T21:49:12.514Z,3.25
2023-11-23T21:51:40.509Z,2.95
2023-11-23T21:54:11.193Z,12.65
2023-11-23T21:56:39.781Z,4.85
2023-11-23T21:59:07.785Z,3.72
2023-11-23T22:01:35.860Z,4.10
2023-11-23T22:04:04.987Z,5.43
2023-11-23T22:06:33.080Z,5.30
2023-11-23T22:09:01.910Z,2.80
2023-11-23T22:11:31.216Z,4.30
2023-11-23T22:13:59.195Z,7.15
2023-11-23T22:16:28.543Z,5.55
2023-11-23T22:18:57.923Z,9.02
2023-11-23T22:21:26.365Z,5.10
2023-11-23T22:23:54.805Z,8.48
2023-11-23T22:26:24.536Z,3.67
2023-11-23T22:28:54.637Z,7.30
2023-11-23T22:31:23.644Z,10.90
2023-11-23T22:33:52.214Z,6.57
2023-11-23T22:36:20.775Z,6.60
2023-11-23T22:38:49.994Z,12.23
2023-11-23T22:41:19.622Z,9.70
2023-11-23T22:43:49.808Z,14.93
2023-11-23T22:46:20.204Z,8.88
2023-11-23T22:48:48.264Z,11.68
2023-11-23T22:51:16.696Z,7.50
2023-11-23T22:53:45.262Z,14.90
2023-11-23T22:56:14.383Z,4.35
2023-11-23T22:58:43.405Z,7.13
2023-11-23T23:01:11.533Z,12.90
2023-11-23T23:03:41.499Z,5.95
2023-11-23T23:06:10.339Z,11.50
2023-11-23T23:08:39.802Z,6.43
2023-11-23T23:13:37.724Z,7.88
2023-11-23T23:16:06.364Z,9.43
2023-11-23T23:18:34.388Z,8.30
2023-11-23T23:21:03.776Z,7.85
2023-11-23T23:23:32.281Z,7.60
2023-11-23T23:26:00.307Z,10.02
2023-11-23T23:28:32.110Z,9.02
2023-11-23T23:31:00.853Z,3.17
2023-11-23T23:33:28.939Z,6.88
2023-11-23T23:35:58.210Z,7.53
2023-11-23T23:38:27.522Z,2.33
2023-11-23T23:40:55.503Z,5.70
2023-11-23T23:43:23.829Z,1.40
2023-11-23T23:45:52.017Z,5.35
2023-11-23T23:48:20.130Z,6.00
2023-11-23T23:50:48.163Z,10.52
2023-11-23T23:53:16.267Z,3.38
2023-11-23T23:55:47.039Z,5.47
2023-11-23T23:58:16.313Z,1.23
